International Virtual Aviation Organisation

Eastern Europe and Northern Asia MCD

 

Карточка аэропорта UHWW

Внимание!
Информация на этой странице в стадии наполнения.
Если вы не увидели какой-то информации, или заметили неточность - пожалуйста сообщите нам!
Спасибо!
Команда RU-STAFF
Название аэропортаКневичи
Название аэропорта (англ.)Knevichi
Превышение59 ft. (18 m.)
Координаты43°23.886', 132°8.9400000000001'
Высота перехода1800m
Эшелон переходаFL080
Коды ответчика5050-5077
Зона ОрВДХабаровск РПИ (UHHH)
Данные METARUHWW 101100Z 13003MPS 9999 FEW010 05/02 Q1029 R25L/0///70 NOSIG RMK QFE771
Проноз погоды (TAF)UHWW 101100Z 1012/1112 12003MPS 6000 SCT002 BKN016 TEMPO 1015/1023 15003MPS 0400 FG FM102300 18003MPS 9999 SCT025 TEMPO 1100/1112 18013MPS SCT017CB
NOTAMshow/hide NOTAM
AWOS   TABLE

Информация о ВПП

ВПП Длина ВПП (м.) Покрытие Курс ВПП Частота ILS
07R3500Бетон71109.3
25L3500Бетон251110.1

Диспетчерские позиции

Позывной Наименование органа УВД Частота
UHWW_APPВладивосток-Подход124.7
UHWW_R_APPВладивосток-Круг119.5
UHWW_TWRВладивосток-Старт126.0
UHWW_GNDВладивосток-Руление121.7
UHWW-FM1Машина сопровождения121.700



Спутниковое изображение